createdAt,value
2018-05-10T00:00:53.948Z,57.20
2018-05-10T00:03:20.161Z,56.80
2018-05-10T00:05:46.362Z,57.30
2018-05-10T00:08:12.600Z,57.60
2018-05-10T00:10:38.807Z,57.80
2018-05-10T00:13:04.998Z,57.70
2018-05-10T00:15:31.227Z,57.50
2018-05-10T00:17:58.164Z,58.00
2018-05-10T00:20:25.160Z,57.80
2018-05-10T00:22:51.364Z,57.80
2018-05-10T00:25:17.570Z,57.80
2018-05-10T00:27:43.772Z,57.90
2018-05-10T00:30:10.010Z,58.00
2018-05-10T00:32:36.194Z,57.80
2018-05-10T00:35:02.399Z,58.00
2018-05-10T00:37:29.345Z,58.00
2018-05-10T00:39:56.283Z,58.20
2018-05-10T00:42:23.208Z,58.20
2018-05-10T00:44:50.146Z,58.30
2018-05-10T00:47:16.370Z,58.20
2018-05-10T00:49:42.581Z,58.10
2018-05-10T00:52:08.803Z,58.10
2018-05-10T00:54:47.215Z,58.60
2018-05-10T00:57:13.418Z,58.00
2018-05-10T00:59:39.631Z,58.00
2018-05-10T01:02:05.847Z,58.00
2018-05-10T01:04:32.072Z,57.80
2018-05-10T01:06:59.017Z,57.80
2018-05-10T01:09:25.969Z,57.60
2018-05-10T01:11:52.187Z,57.60
2018-05-10T01:14:19.145Z,57.50
2018-05-10T01:16:46.093Z,57.60
2018-05-10T01:19:12.303Z,57.50
2018-05-10T01:21:39.268Z,57.50
2018-05-10T01:24:05.494Z,57.40
2018-05-10T01:26:32.427Z,57.30
2018-05-10T01:28:59.383Z,57.20
2018-05-10T01:31:25.591Z,57.20
2018-05-10T01:33:52.537Z,57.10
2018-05-10T01:36:18.763Z,57.00
2018-05-10T01:38:45.723Z,57.00
2018-05-10T01:41:11.924Z,56.90
2018-05-10T01:43:38.133Z,56.90
2018-05-10T01:46:04.369Z,56.80
2018-05-10T01:48:30.567Z,56.90
2018-05-10T01:50:56.792Z,56.80
2018-05-10T01:53:22.989Z,56.80
2018-05-10T01:55:49.200Z,56.70
2018-05-10T01:58:16.145Z,56.70
2018-05-10T02:00:42.336Z,56.60
2018-05-10T02:03:08.585Z,56.70
2018-05-10T02:05:34.796Z,56.70
2018-05-10T02:08:00.990Z,56.90
2018-05-10T02:10:27.200Z,56.90
2018-05-10T02:12:53.416Z,57.10
2018-05-10T02:15:19.630Z,57.60
2018-05-10T02:17:46.592Z,58.10
2018-05-10T02:20:13.539Z,58.40
2018-05-10T02:22:40.501Z,59.00
2018-05-10T02:25:06.706Z,58.90
2018-05-10T02:27:33.628Z,60.00
2018-05-10T02:29:59.826Z,60.00
2018-05-10T02:32:26.007Z,60.40
2018-05-10T02:34:52.957Z,61.80
2018-05-10T02:37:19.912Z,61.80
2018-05-10T02:39:46.110Z,61.70
2018-05-10T02:42:12.353Z,62.00
2018-05-10T02:44:39.306Z,63.40
2018-05-10T02:47:05.534Z,63.40
2018-05-10T02:49:32.469Z,64.40
2018-05-10T02:51:59.413Z,64.50
2018-05-10T02:54:25.640Z,64.50
2018-05-10T02:56:52.569Z,64.50
2018-05-10T02:59:18.784Z,64.50
2018-05-10T03:01:44.969Z,64.10
2018-05-10T03:04:11.166Z,64.50
2018-05-10T03:06:38.100Z,65.60
2018-05-10T03:09:04.291Z,65.50
2018-05-10T03:11:30.488Z,65.20
2018-05-10T03:13:56.680Z,65.70
2018-05-10T03:16:29.937Z,65.90
2018-05-10T03:18:56.147Z,67.00
2018-05-10T03:21:22.340Z,68.10
2018-05-10T03:23:49.253Z,70.10
2018-05-10T03:26:15.498Z,69.90
2018-05-10T03:28:41.671Z,70.70
2018-05-10T03:31:07.868Z,71.60
2018-05-10T03:33:34.783Z,73.10
2018-05-10T03:36:00.947Z,73.00
2018-05-10T03:38:27.125Z,73.50
2018-05-10T03:40:53.309Z,73.90
2018-05-10T03:43:19.527Z,74.30
2018-05-10T03:45:46.451Z,75.70
2018-05-10T03:48:13.430Z,74.70
2018-05-10T03:50:39.619Z,75.10
2018-05-10T03:53:05.784Z,75.60
2018-05-10T03:55:31.979Z,75.80
2018-05-10T03:57:58.910Z,76.10
2018-05-10T04:00:25.089Z,76.10
2018-05-10T04:06:13.353Z,75.10
2018-05-10T04:08:52.483Z,76.60
2018-05-10T04:11:26.286Z,76.70
2018-05-10T04:13:52.473Z,76.60
2018-05-10T04:16:19.400Z,76.70
2018-05-10T04:18:45.583Z,76.70
2018-05-10T04:21:11.771Z,76.70
2018-05-10T04:23:37.949Z,76.70
2018-05-10T04:26:04.134Z,76.40
2018-05-10T04:28:30.316Z,76.50
2018-05-10T04:30:56.495Z,76.70
2018-05-10T04:33:23.403Z,76.40
2018-05-10T04:35:49.625Z,76.20
2018-05-10T04:38:15.772Z,76.10
2018-05-10T04:40:41.970Z,76.10
2018-05-10T04:43:08.152Z,76.20
2018-05-10T04:45:35.061Z,76.80
2018-05-10T04:48:01.252Z,76.70
2018-05-10T04:50:27.409Z,76.80
2018-05-10T04:52:53.576Z,77.20
2018-05-10T04:55:20.524Z,77.30
2018-05-10T04:57:47.427Z,77.50
2018-05-10T05:00:13.628Z,77.30
2018-05-10T05:02:39.835Z,77.50
2018-05-10T05:05:06.006Z,77.60
2018-05-10T05:07:32.204Z,77.50
2018-05-10T05:09:58.402Z,77.30
2018-05-10T05:12:25.324Z,77.20
2018-05-10T05:14:52.254Z,76.90
2018-05-10T05:17:18.451Z,76.80
2018-05-10T05:19:44.655Z,76.70
2018-05-10T05:22:10.824Z,76.70
2018-05-10T05:24:37.017Z,76.40
2018-05-10T05:27:03.188Z,76.10
2018-05-10T05:29:29.360Z,76.10
2018-05-10T05:31:56.272Z,77.10
2018-05-10T05:36:55.512Z,76.20
2018-05-10T05:39:22.423Z,76.10
2018-05-10T05:41:48.609Z,76.00
2018-05-10T05:44:14.793Z,76.20
2018-05-10T05:46:40.957Z,76.00
2018-05-10T05:49:07.161Z,76.10
2018-05-10T05:51:34.092Z,76.70
2018-05-10T05:54:01.025Z,77.10
2018-05-10T05:56:27.216Z,77.10
2018-05-10T05:58:53.421Z,77.20
2018-05-10T06:01:19.623Z,77.50
2018-05-10T06:03:46.527Z,77.80
2018-05-10T06:06:12.706Z,77.60
2018-05-10T06:08:38.873Z,78.00
2018-05-10T06:11:05.060Z,78.60
2018-05-10T06:13:31.351Z,79.60
2018-05-10T06:15:57.647Z,80.40
2018-05-10T06:18:23.804Z,80.40
2018-05-10T06:20:49.990Z,81.10
2018-05-10T06:23:16.171Z,80.50
2018-05-10T06:25:42.363Z,81.70
2018-05-10T06:28:08.556Z,82.30
2018-05-10T06:30:34.725Z,80.80
2018-05-10T06:33:00.913Z,80.40
2018-05-10T06:35:27.092Z,80.40
2018-05-10T06:37:53.275Z,79.40
2018-05-10T06:40:19.459Z,80.20
2018-05-10T06:42:45.636Z,79.20
2018-05-10T06:45:11.807Z,78.80
2018-05-10T06:47:37.986Z,78.30
2018-05-10T06:50:04.163Z,77.60
2018-05-10T06:52:30.338Z,76.70
2018-05-10T06:54:56.535Z,75.90
2018-05-10T06:57:23.456Z,73.80
2018-05-10T06:59:49.704Z,73.60
2018-05-10T07:02:16.623Z,71.50
2018-05-10T07:04:42.803Z,71.30
2018-05-10T07:07:08.986Z,71.10
2018-05-10T07:09:36.748Z,70.70
2018-05-10T07:12:02.832Z,70.30
2018-05-10T07:14:29.002Z,71.00
2018-05-10T07:16:55.232Z,70.90
2018-05-10T07:19:21.524Z,71.70
2018-05-10T07:21:47.703Z,71.10
2018-05-10T07:24:14.649Z,72.20
2018-05-10T07:26:41.589Z,72.60
2018-05-10T07:29:08.503Z,71.90
2018-05-10T07:31:34.684Z,71.70
2018-05-10T07:34:00.867Z,71.70
2018-05-10T07:36:27.049Z,72.20
2018-05-10T07:38:53.253Z,71.40
2018-05-10T07:41:20.247Z,71.60
2018-05-10T07:43:46.408Z,71.50
2018-05-10T07:46:12.577Z,71.60
2018-05-10T07:48:38.737Z,71.60
2018-05-10T07:51:06.656Z,71.90
2018-05-10T07:53:32.843Z,71.60
2018-05-10T07:55:59.037Z,72.10
2018-05-10T07:58:25.222Z,71.90
2018-05-10T08:00:52.160Z,72.00
2018-05-10T08:03:19.081Z,72.20
2018-05-10T08:05:45.268Z,72.00
2018-05-10T08:08:11.447Z,72.50
2018-05-10T08:10:37.682Z,72.70
2018-05-10T08:13:03.952Z,73.10
2018-05-10T08:15:30.167Z,73.20
2018-05-10T08:17:56.385Z,73.60
2018-05-10T08:20:22.640Z,73.70
2018-05-10T08:22:48.816Z,73.60
2018-05-10T08:25:14.991Z,74.00
2018-05-10T08:27:45.185Z,74.90
2018-05-10T08:30:11.463Z,74.50
2018-05-10T08:32:38.330Z,75.10
2018-05-10T08:35:04.551Z,74.80
2018-05-10T08:37:30.815Z,74.90
2018-05-10T08:39:57.763Z,75.90
2018-05-10T08:42:24.679Z,76.10
2018-05-10T08:44:50.899Z,76.00
2018-05-10T08:47:18.552Z,78.20
2018-05-10T08:49:44.736Z,77.80
2018-05-10T08:52:10.920Z,80.20
2018-05-10T08:54:38.610Z,80.60
2018-05-10T08:57:04.838Z,80.10
2018-05-10T08:59:31.057Z,80.00
2018-05-10T09:01:58.066Z,80.00
2018-05-10T09:04:24.386Z,79.80
2018-05-10T09:06:51.381Z,77.30
2018-05-10T09:09:17.658Z,77.10
2018-05-10T09:11:43.913Z,76.20
2018-05-10T09:14:10.154Z,76.10
2018-05-10T09:16:37.081Z,73.40
2018-05-10T09:19:03.241Z,73.20
2018-05-10T09:21:29.430Z,72.40
2018-05-10T09:23:55.601Z,70.90
2018-05-10T09:26:22.498Z,70.00
2018-05-10T09:28:48.732Z,69.70
2018-05-10T09:31:14.950Z,69.40
2018-05-10T09:33:41.132Z,69.80
2018-05-10T09:36:14.503Z,70.10
2018-05-10T09:38:40.671Z,70.00
2018-05-10T09:41:06.831Z,70.40
2018-05-10T09:43:33.011Z,70.30
2018-05-10T09:45:59.181Z,70.40
2018-05-10T09:48:25.356Z,70.90
2018-05-10T09:50:52.293Z,71.40
2018-05-10T09:53:19.204Z,71.90
2018-05-10T09:55:45.378Z,71.70
2018-05-10T09:58:11.617Z,71.80
2018-05-10T10:00:37.839Z,71.50
2018-05-10T10:03:04.009Z,71.80
2018-05-10T10:05:31.710Z,71.30
2018-05-10T10:07:58.627Z,71.30
2018-05-10T10:10:26.279Z,71.00
2018-05-10T10:12:52.472Z,70.80
2018-05-10T10:15:18.652Z,71.10
2018-05-10T10:17:44.828Z,71.30
2018-05-10T10:20:11.048Z,71.60
2018-05-10T10:22:37.253Z,71.70
2018-05-10T10:25:04.174Z,71.50
2018-05-10T10:27:31.120Z,71.90
2018-05-10T10:29:57.324Z,71.80
2018-05-10T10:32:23.563Z,72.30
2018-05-10T10:34:50.396Z,73.20
2018-05-10T10:37:16.576Z,73.10
2018-05-10T10:39:42.754Z,73.30
2018-05-10T10:42:08.920Z,73.00
2018-05-10T10:44:35.821Z,73.70
2018-05-10T10:47:02.031Z,73.50
2018-05-10T10:49:28.192Z,73.50
2018-05-10T10:51:54.371Z,73.80
2018-05-10T10:54:20.610Z,73.80
2018-05-10T10:56:46.792Z,74.10
2018-05-10T10:59:13.729Z,74.70
2018-05-10T11:01:39.926Z,74.50
2018-05-10T11:04:06.098Z,74.70
2018-05-10T11:06:33.039Z,74.40
2018-05-10T11:08:59.975Z,74.30
2018-05-10T11:11:26.169Z,74.20
2018-05-10T11:13:52.359Z,74.30
2018-05-10T11:16:18.531Z,74.20
2018-05-10T11:18:44.719Z,74.10
2018-05-10T11:21:10.891Z,73.70
2018-05-10T11:23:37.907Z,74.10
2018-05-10T11:26:04.108Z,73.90
2018-05-10T11:28:30.309Z,74.50
2018-05-10T11:30:56.495Z,74.50
2018-05-10T11:33:22.692Z,75.30
2018-05-10T11:35:49.600Z,77.30
2018-05-10T11:38:15.811Z,76.50
2018-05-10T11:40:41.990Z,77.40
2018-05-10T11:43:08.191Z,76.00
2018-05-10T11:45:35.852Z,75.00
2018-05-10T11:48:02.775Z,74.80
2018-05-10T11:50:28.964Z,74.60
2018-05-10T11:52:55.152Z,74.20
2018-05-10T11:55:22.181Z,74.10
2018-05-10T11:57:48.388Z,75.00
2018-05-10T12:00:14.592Z,73.50
2018-05-10T12:02:40.804Z,73.50
2018-05-10T12:05:07.700Z,72.50
2018-05-10T12:07:33.867Z,72.30
2018-05-10T12:10:00.787Z,71.10
2018-05-10T12:12:26.952Z,71.00
2018-05-10T12:14:53.182Z,71.70
2018-05-10T12:17:19.424Z,71.90
2018-05-10T12:19:45.633Z,72.20
2018-05-10T12:22:11.818Z,72.50
2018-05-10T12:24:38.008Z,72.40
2018-05-10T12:27:04.239Z,72.40
2018-05-10T12:29:30.419Z,71.60
2018-05-10T12:31:57.405Z,71.10
2018-05-10T12:34:23.508Z,71.00
2018-05-10T12:36:49.698Z,71.40
2018-05-10T12:39:15.888Z,71.10
2018-05-10T12:41:42.148Z,70.70
2018-05-10T12:44:09.012Z,69.40
2018-05-10T12:46:35.194Z,69.30
2018-05-10T12:49:01.393Z,70.10
2018-05-10T12:51:27.575Z,70.30
2018-05-10T12:53:53.741Z,68.70
2018-05-10T12:56:19.972Z,67.90
2018-05-10T12:58:46.874Z,67.30
2018-05-10T13:01:13.067Z,67.10
2018-05-10T13:03:39.277Z,67.90
2018-05-10T13:06:05.445Z,67.70
2018-05-10T13:08:31.733Z,65.80
2018-05-10T13:10:57.843Z,64.40
2018-05-10T13:13:24.826Z,60.90
2018-05-10T13:15:51.719Z,60.50
2018-05-10T13:18:17.916Z,60.40
2018-05-10T13:20:44.099Z,60.80
2018-05-10T13:23:11.032Z,59.50
2018-05-10T13:25:37.989Z,59.70
2018-05-10T13:28:04.191Z,59.60
2018-05-10T13:30:31.856Z,60.10
2018-05-10T13:32:58.075Z,60.00
2018-05-10T13:35:24.287Z,58.40
2018-05-10T13:37:50.472Z,59.40
2018-05-10T13:40:17.421Z,59.20
2018-05-10T13:42:43.593Z,59.00
2018-05-10T13:45:09.803Z,59.10
2018-05-10T13:47:36.116Z,57.40
2018-05-10T13:50:02.265Z,55.50
2018-05-10T13:52:28.472Z,57.30
2018-05-10T13:54:54.655Z,57.00
2018-05-10T13:57:20.828Z,57.40
2018-05-10T13:59:47.024Z,58.40
2018-05-10T14:02:13.992Z,58.20
2018-05-10T14:04:40.887Z,59.70
2018-05-10T14:07:07.085Z,59.50
2018-05-10T14:09:33.269Z,57.90
2018-05-10T14:12:00.201Z,54.70
2018-05-10T14:14:26.390Z,54.60
2018-05-10T14:16:52.587Z,55.40
2018-05-10T14:19:18.764Z,54.50
2018-05-10T14:21:44.951Z,55.50
2018-05-10T14:24:11.151Z,56.80
2018-05-10T14:26:38.068Z,55.60
2018-05-10T14:29:04.254Z,55.50
2018-05-10T14:31:30.462Z,56.50
2018-05-10T14:33:56.642Z,57.40
2018-05-10T14:36:22.847Z,57.40
2018-05-10T14:38:49.035Z,54.00
2018-05-10T14:41:15.957Z,54.20
2018-05-10T14:43:42.145Z,54.00
2018-05-10T14:46:08.360Z,52.90
2018-05-10T14:48:34.543Z,51.00
2018-05-10T14:51:00.711Z,52.00
2018-05-10T14:53:26.905Z,51.60
2018-05-10T14:55:53.827Z,50.60
2018-05-10T14:58:19.989Z,50.50
2018-05-10T15:00:46.993Z,50.90
2018-05-10T15:03:13.878Z,51.30
2018-05-10T15:05:40.800Z,50.70
2018-05-10T15:08:07.768Z,51.70
2018-05-10T15:10:34.701Z,51.50
2018-05-10T15:13:01.640Z,52.30
2018-05-10T15:15:28.638Z,51.00
2018-05-10T15:17:54.806Z,50.90
2018-05-10T15:20:20.993Z,53.10
2018-05-10T15:22:47.184Z,51.20
2018-05-10T15:25:14.112Z,50.70
2018-05-10T15:27:41.081Z,50.60
2018-05-10T15:30:08.023Z,52.00
2018-05-10T15:32:34.968Z,50.80
2018-05-10T15:35:08.933Z,48.20
2018-05-10T15:37:35.102Z,48.20
2018-05-10T15:40:01.292Z,48.60
2018-05-10T15:42:27.493Z,48.70
2018-05-10T15:44:53.706Z,48.30
2018-05-10T15:47:19.887Z,49.60
2018-05-10T15:49:46.079Z,48.70
2018-05-10T15:52:12.257Z,48.90
2018-05-10T15:54:38.460Z,48.20
2018-05-10T15:57:04.709Z,48.10
2018-05-10T15:59:31.658Z,49.50
2018-05-10T16:01:57.826Z,49.40
2018-05-10T16:04:24.015Z,48.70
2018-05-10T16:06:50.959Z,49.50
2018-05-10T16:09:17.191Z,49.40
2018-05-10T16:11:44.140Z,47.90
2018-05-10T16:14:11.060Z,47.60
2018-05-10T16:16:37.236Z,47.50
2018-05-10T16:19:03.444Z,48.80
2018-05-10T16:21:30.345Z,47.30
2018-05-10T16:23:56.517Z,47.20
2018-05-10T16:26:22.707Z,49.10
2018-05-10T16:28:48.904Z,49.30
2018-05-10T16:31:15.079Z,47.80
2018-05-10T16:33:41.288Z,47.70
2018-05-10T16:36:07.478Z,47.70
2018-05-10T16:38:33.657Z,48.50
2018-05-10T16:40:59.857Z,48.50
2018-05-10T16:43:26.837Z,49.50
2018-05-10T16:45:53.763Z,47.70
2018-05-10T16:48:19.940Z,47.60
2018-05-10T16:50:46.110Z,47.60
2018-05-10T16:53:12.285Z,47.00
2018-05-10T16:55:38.469Z,47.90
2018-05-10T16:58:04.656Z,48.10
2018-05-10T17:00:30.852Z,46.50
2018-05-10T17:03:04.875Z,48.80
2018-05-10T17:05:31.052Z,48.70
2018-05-10T17:07:57.272Z,48.20
2018-05-10T17:10:23.472Z,48.10
2018-05-10T17:12:49.661Z,48.00
2018-05-10T17:15:16.594Z,49.30
2018-05-10T17:17:42.800Z,49.20
2018-05-10T17:20:09.049Z,49.80
2018-05-10T17:22:35.258Z,50.00
2018-05-10T17:25:01.460Z,49.10
2018-05-10T17:27:27.648Z,50.40
2018-05-10T17:29:54.611Z,52.40
2018-05-10T17:32:20.811Z,52.30
2018-05-10T17:34:46.999Z,51.10
2018-05-10T17:37:13.287Z,50.50
2018-05-10T17:39:39.419Z,50.10
2018-05-10T17:42:06.358Z,50.60
2018-05-10T17:44:32.578Z,50.50
2018-05-10T17:46:58.769Z,50.80
2018-05-10T17:49:24.952Z,49.70
2018-05-10T17:51:51.137Z,50.00
2018-05-10T17:54:17.315Z,50.10
2018-05-10T17:56:43.505Z,51.10
2018-05-10T17:59:09.708Z,51.20
2018-05-10T18:01:35.912Z,51.70
2018-05-10T18:04:02.121Z,52.20
2018-05-10T18:06:28.342Z,51.60
2018-05-10T18:08:55.261Z,51.80
2018-05-10T18:11:21.491Z,51.80
2018-05-10T18:13:47.723Z,52.00
2018-05-10T18:16:13.952Z,50.90
2018-05-10T18:18:40.897Z,50.20
2018-05-10T18:21:14.135Z,50.20
2018-05-10T18:23:40.312Z,50.90
2018-05-10T18:26:06.490Z,49.60
2018-05-10T18:28:32.683Z,50.10
2018-05-10T18:30:59.607Z,50.40
2018-05-10T18:33:25.744Z,50.40
2018-05-10T18:35:51.896Z,50.70
2018-05-10T18:38:18.090Z,51.30
2018-05-10T18:40:45.791Z,51.70
2018-05-10T18:43:11.936Z,51.60
2018-05-10T18:45:38.085Z,51.20
2018-05-10T18:48:04.255Z,51.30
2018-05-10T18:50:30.405Z,52.00
2018-05-10T18:52:57.316Z,52.90
2018-05-10T18:55:23.480Z,52.70
2018-05-10T18:57:49.671Z,53.40
2018-05-10T19:00:15.852Z,53.80
2018-05-10T19:02:42.039Z,54.00
2018-05-10T19:05:09.688Z,55.10
2018-05-10T19:07:35.909Z,55.00
2018-05-10T19:10:02.071Z,55.40
2018-05-10T19:12:28.964Z,57.00
2018-05-10T19:14:55.104Z,56.40
2018-05-10T19:17:21.262Z,56.80
2018-05-10T19:19:47.416Z,57.30
2018-05-10T19:22:13.582Z,57.60
2018-05-10T19:24:39.736Z,57.80
2018-05-10T19:27:12.922Z,58.20
2018-05-10T19:29:39.096Z,58.50
2018-05-10T19:32:05.281Z,58.70
2018-05-10T19:34:31.493Z,58.90
2018-05-10T19:36:57.628Z,59.10
2018-05-10T19:39:23.785Z,59.40
2018-05-10T19:41:50.683Z,59.80
2018-05-10T19:44:17.605Z,60.20
2018-05-10T19:46:43.749Z,60.00
2018-05-10T19:49:09.960Z,60.50
2018-05-10T19:51:36.137Z,60.50
2018-05-10T19:54:02.393Z,60.80
2018-05-10T19:56:28.544Z,61.00
2018-05-10T19:58:54.703Z,61.00
2018-05-10T20:01:21.603Z,61.40
2018-05-10T20:03:47.741Z,61.20
2018-05-10T20:06:13.886Z,61.60
2018-05-10T20:08:40.804Z,61.90
2018-05-10T20:11:06.986Z,61.80
2018-05-10T20:13:33.872Z,62.00
2018-05-10T20:16:00.065Z,61.90
2018-05-10T20:18:26.256Z,62.10
2018-05-10T20:20:53.186Z,62.40
2018-05-10T20:23:19.353Z,62.30
2018-05-10T20:25:45.517Z,62.60
2018-05-10T20:28:11.762Z,62.80
2018-05-10T20:30:37.837Z,62.80
2018-05-10T20:33:04.897Z,63.60
2018-05-10T20:35:31.081Z,62.80
2018-05-10T20:37:57.225Z,62.90
2018-05-10T20:40:23.376Z,63.00
2018-05-10T20:42:50.263Z,63.50
2018-05-10T20:45:17.940Z,63.40
2018-05-10T20:47:44.860Z,63.60
2018-05-10T20:50:11.045Z,63.50
2018-05-10T20:52:37.944Z,63.80
2018-05-10T20:55:11.807Z,64.70
2018-05-10T20:57:37.917Z,63.80
2018-05-10T21:00:04.099Z,64.50
2018-05-10T21:02:30.285Z,63.70
2018-05-10T21:04:56.421Z,64.00
2018-05-10T21:07:29.523Z,64.00
2018-05-10T21:09:55.727Z,64.10
2018-05-10T21:12:34.243Z,64.10
2018-05-10T21:15:01.156Z,64.40
2018-05-10T21:17:27.336Z,64.20
2018-05-10T21:19:53.492Z,64.30
2018-05-10T21:22:20.411Z,65.40
2018-05-10T21:24:46.588Z,64.50
2018-05-10T21:27:12.732Z,64.40
2018-05-10T21:29:39.614Z,64.60
2018-05-10T21:32:05.777Z,64.60
2018-05-10T21:34:32.698Z,64.70
2018-05-10T21:36:58.925Z,64.60
2018-05-10T21:39:25.099Z,64.70
2018-05-10T21:41:51.995Z,64.80
2018-05-10T21:44:18.160Z,64.70
2018-05-10T21:46:44.332Z,64.80
2018-05-10T21:49:22.968Z,64.70
2018-05-10T21:51:49.103Z,64.90
2018-05-10T21:54:16.019Z,64.90
2018-05-10T21:56:42.243Z,64.70
2018-05-10T21:59:08.386Z,64.50
2018-05-10T22:01:34.555Z,64.40
2018-05-10T22:04:01.501Z,65.40
2018-05-10T22:06:27.706Z,64.50
2018-05-10T22:08:54.651Z,64.80
2018-05-10T22:11:21.587Z,64.70
2018-05-10T22:13:48.527Z,64.50
2018-05-10T22:16:14.705Z,64.40
2018-05-10T22:18:40.900Z,64.20
2018-05-10T22:21:07.831Z,64.10
2018-05-10T22:23:34.739Z,64.10
2018-05-10T22:26:00.928Z,63.90
2018-05-10T22:28:27.118Z,63.90
2018-05-10T22:30:53.269Z,63.90
2018-05-10T22:33:20.200Z,63.90
2018-05-10T22:35:46.349Z,63.80
2018-05-10T22:38:12.560Z,63.80
2018-05-10T22:40:39.488Z,64.00
2018-05-10T22:43:05.660Z,64.00
2018-05-10T22:45:32.563Z,64.10
2018-05-10T22:47:58.785Z,64.00
2018-05-10T22:50:24.891Z,64.10
2018-05-10T22:52:51.076Z,64.00
2018-05-10T22:55:17.225Z,64.10
2018-05-10T22:57:43.379Z,64.00
2018-05-10T23:00:09.581Z,64.30
2018-05-10T23:02:35.675Z,64.40
2018-05-10T23:05:01.892Z,64.40
2018-05-10T23:07:28.085Z,64.90
2018-05-10T23:09:54.255Z,65.00
2018-05-10T23:12:21.201Z,65.20
2018-05-10T23:14:47.406Z,65.00
2018-05-10T23:17:13.592Z,65.00
2018-05-10T23:19:39.762Z,65.20
2018-05-10T23:22:06.678Z,65.60
2018-05-10T23:24:32.868Z,65.60
2018-05-10T23:26:59.039Z,65.60
2018-05-10T23:29:25.204Z,65.70
2018-05-10T23:31:52.161Z,66.10
2018-05-10T23:34:18.356Z,66.00
2018-05-10T23:36:44.515Z,66.10
2018-05-10T23:39:10.701Z,66.20
2018-05-10T23:41:43.718Z,66.00
2018-05-10T23:44:16.780Z,66.00
2018-05-10T23:46:42.940Z,65.90
2018-05-10T23:49:09.115Z,65.60
2018-05-10T23:51:35.287Z,65.50
2018-05-10T23:54:01.506Z,65.60
2018-05-10T23:56:28.408Z,65.50
2018-05-10T23:58:54.587Z,65.40
